createdAt,value
2023-03-06T00:54:54.757Z,400.00
2023-03-06T00:55:55.716Z,400.00
2023-03-06T00:56:55.708Z,399.00
2023-03-06T00:57:55.718Z,400.00
2023-03-06T00:58:55.700Z,399.00
2023-03-06T00:59:55.680Z,400.00
2023-03-06T01:00:55.734Z,399.00
2023-03-06T01:01:55.739Z,398.00
2023-03-06T01:02:55.659Z,401.00
2023-03-06T01:03:55.713Z,401.00
2023-03-06T01:04:55.677Z,400.00
2023-03-06T01:05:55.678Z,400.00
2023-03-06T01:06:55.678Z,399.00
2023-03-06T01:07:55.634Z,398.00
2023-03-06T01:08:55.678Z,396.00
2023-03-06T01:09:55.589Z,395.00
2023-03-06T01:10:55.607Z,397.00
2023-03-06T01:11:55.578Z,396.00
2023-03-06T01:12:55.576Z,396.00
2023-03-06T01:13:55.559Z,396.00
2023-03-06T01:14:55.558Z,395.00
2023-03-06T01:15:55.541Z,397.00
2023-03-06T01:16:55.543Z,397.00
2023-03-06T01:17:55.542Z,396.00
2023-03-06T01:18:55.512Z,397.00
2023-03-06T01:19:55.509Z,396.00
2023-03-06T01:20:55.492Z,397.00
2023-03-06T01:21:55.488Z,396.00
2023-03-06T01:22:55.471Z,398.00
2023-03-06T01:23:55.474Z,398.00
2023-03-06T01:24:55.462Z,398.00
2023-03-06T01:25:55.451Z,397.00
2023-03-06T01:26:55.475Z,396.00
2023-03-06T01:27:55.438Z,394.00
2023-03-06T01:28:55.426Z,390.00
2023-03-06T01:29:55.414Z,391.00
2023-03-06T01:30:55.405Z,390.00
2023-03-06T01:31:55.568Z,389.00
2023-03-06T01:32:55.395Z,390.00
2023-03-06T01:33:55.384Z,390.00
2023-03-06T01:34:55.375Z,389.00
2023-03-06T01:35:55.435Z,390.00
2023-03-06T01:36:55.360Z,391.00
2023-03-06T02:41:54.811Z,400.00
2023-03-06T02:44:54.804Z,400.00
2023-03-06T03:54:54.182Z,407.00
2023-03-06T04:36:53.822Z,399.00
2023-03-06T05:12:53.524Z,395.00
2023-03-06T05:13:53.504Z,396.00
2023-03-06T05:14:53.497Z,396.00
2023-03-06T05:15:53.489Z,396.00
2023-03-06T05:16:53.483Z,393.00
2023-03-06T05:17:53.473Z,394.00
2023-03-06T05:18:53.468Z,394.00
2023-03-06T05:19:53.452Z,395.00
2023-03-06T05:20:53.454Z,394.00
2023-03-06T05:21:53.445Z,394.00
2023-03-06T05:22:53.429Z,394.00
2023-03-06T05:23:53.420Z,393.00
2023-03-06T05:24:53.414Z,394.00
2023-03-06T05:25:53.411Z,394.00
2023-03-06T05:26:53.421Z,394.00
2023-03-06T05:27:53.396Z,395.00
2023-03-06T05:28:53.377Z,395.00
2023-03-06T05:29:53.382Z,394.00
2023-03-06T05:30:53.371Z,395.00
2023-03-06T05:31:53.407Z,393.00
2023-03-06T05:32:53.392Z,392.00
2023-03-06T05:33:53.337Z,391.00
2023-03-06T05:34:53.335Z,391.00
2023-03-06T05:35:53.368Z,390.00
2023-03-06T05:36:53.316Z,389.00
2023-03-06T05:37:53.306Z,390.00
2023-03-06T05:38:53.298Z,394.00
2023-03-06T05:39:53.292Z,395.00
2023-03-06T05:40:53.289Z,399.00
2023-03-06T05:41:53.275Z,400.00
2023-03-06T05:42:53.292Z,401.00
2023-03-06T05:43:53.255Z,399.00
2023-03-06T05:44:53.249Z,400.00
2023-03-06T05:45:53.288Z,402.00
2023-03-06T05:46:53.230Z,402.00
2023-03-06T05:47:53.224Z,401.00
2023-03-06T05:48:53.220Z,400.00
2023-03-06T05:49:53.213Z,399.00
2023-03-06T05:50:53.200Z,397.00
2023-03-06T05:51:53.191Z,398.00
2023-03-06T05:52:53.185Z,399.00
2023-03-06T05:53:53.179Z,398.00
2023-03-06T05:54:53.172Z,396.00
2023-03-06T05:55:53.161Z,395.00
2023-03-06T05:56:53.154Z,396.00
2023-03-06T05:57:53.141Z,395.00
2023-03-06T05:58:53.162Z,398.00
2023-03-06T05:59:53.119Z,400.00
2023-03-06T06:00:53.108Z,400.00
2023-03-06T06:01:53.109Z,401.00
2023-03-06T06:02:53.095Z,400.00
2023-03-06T06:03:53.197Z,399.00
2023-03-06T06:04:53.087Z,400.00
2023-03-06T06:05:53.073Z,403.00
2023-03-06T06:06:53.056Z,402.00
2023-03-06T06:07:53.059Z,404.00
2023-03-06T06:08:53.055Z,405.00
2023-03-06T06:09:53.046Z,404.00
2023-03-06T06:10:53.531Z,404.00
2023-03-06T06:11:53.018Z,402.00
2023-03-06T06:12:53.010Z,402.00
2023-03-06T06:13:52.999Z,402.00
2023-03-06T06:14:53.021Z,401.00
2023-03-06T06:15:53.017Z,400.00
2023-03-06T06:16:53.945Z,398.00
2023-03-06T06:17:52.974Z,398.00
2023-03-06T06:18:52.979Z,399.00
2023-03-06T06:19:52.953Z,400.00
2023-03-06T06:20:54.950Z,403.00
2023-03-06T06:21:52.943Z,405.00
2023-03-06T06:22:53.409Z,409.00
2023-03-06T06:23:52.910Z,412.00
2023-03-06T06:24:52.904Z,415.00
2023-03-06T06:25:52.900Z,415.00
2023-03-06T06:26:52.895Z,417.00
2023-03-06T06:27:52.891Z,421.00
2023-03-06T06:28:52.924Z,424.00
2023-03-06T06:29:52.871Z,425.00
2023-03-06T06:30:52.922Z,427.00
2023-03-06T06:31:52.846Z,429.00
2023-03-06T06:32:52.835Z,430.00
2023-03-06T06:33:52.829Z,435.00
2023-03-06T06:34:52.855Z,438.00
2023-03-06T06:35:53.101Z,443.00
2023-03-06T06:36:53.635Z,448.00
2023-03-06T06:37:52.812Z,450.00
2023-03-06T06:38:52.792Z,457.00
2023-03-06T06:39:52.790Z,462.00
2023-03-06T06:41:26.748Z,463.00
2023-03-06T06:42:06.323Z,467.00
2023-03-06T06:42:52.755Z,473.00
2023-03-06T06:43:52.914Z,480.00
2023-03-06T06:44:52.745Z,488.00
2023-03-06T06:45:55.749Z,488.00
2023-03-06T06:47:22.438Z,490.00
2023-03-06T06:47:52.754Z,500.00
2023-03-06T06:48:52.726Z,518.00
2023-03-06T06:49:53.042Z,543.00
2023-03-06T06:50:52.683Z,547.00
2023-03-06T06:51:52.950Z,554.00
2023-03-06T06:52:52.691Z,555.00
2023-03-06T06:53:52.667Z,567.00
2023-03-06T06:54:52.914Z,633.00
2023-03-06T06:55:52.665Z,649.00
2023-03-06T06:56:52.651Z,651.00
2023-03-06T06:57:52.645Z,650.00
2023-03-06T06:58:52.627Z,651.00
2023-03-06T06:59:54.066Z,651.00
2023-03-06T07:00:52.789Z,647.00
2023-03-06T07:01:53.253Z,646.00
2023-03-06T07:02:52.750Z,642.00
2023-03-06T07:03:52.753Z,638.00
2023-03-06T07:05:03.591Z,635.00
2023-03-06T07:05:52.696Z,630.00
2023-03-06T07:06:52.939Z,624.00
2023-03-06T07:08:52.672Z,612.00
2023-03-06T07:09:52.665Z,609.00
2023-03-06T07:10:52.846Z,606.00
2023-03-06T07:13:08.237Z,599.00
2023-03-06T07:13:52.640Z,592.00
2023-03-06T07:14:52.649Z,586.00
2023-03-06T07:15:52.740Z,584.00
2023-03-06T07:16:52.942Z,583.00
2023-03-06T07:17:52.943Z,579.00
2023-03-06T07:18:52.619Z,577.00
2023-03-06T07:19:52.591Z,575.00
2023-03-06T07:20:52.931Z,573.00
2023-03-06T07:21:52.566Z,572.00
2023-03-06T07:22:52.554Z,569.00
2023-03-06T07:23:52.574Z,564.00
2023-03-06T07:24:52.532Z,561.00
2023-03-06T07:25:52.942Z,562.00
2023-03-06T07:26:52.531Z,562.00
2023-03-06T07:27:53.927Z,560.00
2023-03-06T07:30:53.052Z,556.00
2023-03-06T07:37:52.937Z,542.00
2023-03-06T07:39:52.965Z,539.00
2023-03-06T07:47:52.948Z,531.00
2023-03-06T08:00:52.445Z,520.00
2023-03-06T08:02:52.533Z,520.00
2023-03-06T08:05:53.039Z,520.00
2023-03-06T08:07:52.457Z,519.00
2023-03-06T08:12:52.466Z,512.00
2023-03-06T08:16:52.627Z,515.00
2023-03-06T08:17:52.498Z,516.00
2023-03-06T08:21:52.476Z,513.00
2023-03-06T08:22:52.522Z,513.00
2023-03-06T08:26:52.250Z,513.00
2023-03-06T08:27:52.478Z,512.00
2023-03-06T08:28:52.231Z,512.00
2023-03-06T08:29:52.219Z,511.00
2023-03-06T08:30:53.216Z,511.00
2023-03-06T08:31:52.278Z,510.00
2023-03-06T08:32:52.487Z,506.00
2023-03-06T08:33:53.203Z,508.00
2023-03-06T08:34:52.181Z,506.00
2023-03-06T08:35:52.199Z,519.00
2023-03-06T08:36:52.157Z,532.00
2023-03-06T08:37:52.471Z,571.00
2023-03-06T08:38:52.178Z,595.00
2023-03-06T08:40:52.473Z,635.00
2023-03-06T08:43:53.456Z,643.00
2023-03-06T08:46:52.456Z,640.00
2023-03-06T08:49:52.483Z,650.00
2023-03-06T08:53:52.477Z,713.00
2023-03-06T08:56:55.162Z,686.00
2023-03-06T09:04:52.173Z,744.00
2023-03-06T09:41:51.985Z,935.00
2023-03-06T12:15:07.963Z,898.00
2023-03-06T12:16:08.659Z,871.00
2023-03-06T12:17:08.621Z,873.00
2023-03-06T12:18:08.677Z,824.00
2023-03-06T12:19:08.961Z,834.00
2023-03-06T12:20:08.980Z,801.00
2023-03-06T12:21:09.286Z,808.00
2023-03-06T12:22:10.621Z,801.00
2023-03-06T12:23:15.343Z,787.00
2023-03-06T12:24:08.564Z,790.00
2023-03-06T12:25:08.561Z,793.00
2023-03-06T12:26:08.547Z,787.00
2023-03-06T12:27:08.963Z,791.00
2023-03-06T12:28:08.522Z,797.00
2023-03-06T12:29:09.039Z,802.00
2023-03-06T12:30:08.507Z,808.00
2023-03-06T12:31:08.534Z,797.00
2023-03-06T12:32:08.760Z,803.00
2023-03-06T12:33:08.501Z,802.00
2023-03-06T12:34:08.988Z,803.00
2023-03-06T12:35:08.459Z,748.00
2023-03-06T12:36:08.460Z,777.00
2023-03-06T12:37:08.509Z,775.00
2023-03-06T12:38:08.458Z,772.00
2023-03-06T12:39:08.428Z,773.00
2023-03-06T12:40:08.418Z,777.00
2023-03-06T12:41:08.479Z,777.00
2023-03-06T12:42:11.496Z,779.00
2023-03-06T12:43:08.634Z,781.00
2023-03-06T12:44:09.009Z,780.00
2023-03-06T12:45:08.464Z,781.00
2023-03-06T12:46:08.448Z,780.00
2023-03-06T12:47:08.364Z,775.00
2023-03-06T12:48:08.343Z,767.00
2023-03-06T12:49:08.334Z,761.00
2023-03-06T12:50:08.464Z,764.00
2023-03-06T12:51:08.326Z,759.00
2023-03-06T12:52:08.911Z,762.00
2023-03-06T12:53:08.311Z,770.00
2023-03-06T12:54:08.320Z,782.00
2023-03-06T12:55:08.547Z,801.00
2023-03-06T12:56:08.318Z,823.00
2023-03-06T12:57:08.284Z,825.00
2023-03-06T12:58:08.262Z,819.00
2023-03-06T12:59:08.273Z,808.00
2023-03-06T13:00:08.556Z,803.00
2023-03-06T13:01:08.563Z,802.00
2023-03-06T13:02:08.301Z,796.00
2023-03-06T13:03:08.479Z,795.00
2023-03-06T13:04:08.218Z,791.00
2023-03-06T13:05:08.210Z,787.00
2023-03-06T13:06:08.194Z,786.00
2023-03-06T13:07:08.189Z,786.00
2023-03-06T13:08:08.478Z,790.00
2023-03-06T13:09:08.284Z,796.00
2023-03-06T13:10:08.197Z,803.00
2023-03-06T13:11:08.683Z,804.00
2023-03-06T13:12:08.153Z,804.00
2023-03-06T13:13:08.481Z,842.00
2023-03-06T13:14:08.130Z,852.00
2023-03-06T13:15:08.126Z,846.00
2023-03-06T13:16:08.121Z,848.00
2023-03-06T13:17:08.105Z,850.00
2023-03-06T13:18:08.104Z,857.00
2023-03-06T13:19:08.483Z,867.00
2023-03-06T13:20:08.080Z,866.00
2023-03-06T13:21:08.074Z,868.00
2023-03-06T13:22:09.011Z,874.00
2023-03-06T13:53:07.072Z,876.00
2023-03-06T13:54:08.087Z,857.00
2023-03-06T13:55:07.988Z,826.00
2023-03-06T13:56:08.340Z,831.00
2023-03-06T13:57:07.974Z,824.00
2023-03-06T13:58:07.940Z,815.00
2023-03-06T13:59:08.333Z,799.00
2023-03-06T14:00:10.083Z,792.00
2023-03-06T14:01:08.983Z,794.00
2023-03-06T14:02:08.829Z,793.00
2023-03-06T14:03:07.913Z,792.00
2023-03-06T14:04:08.338Z,802.00
2023-03-06T14:05:07.878Z,806.00
2023-03-06T14:06:07.872Z,812.00
2023-03-06T14:07:07.858Z,816.00
2023-03-06T14:08:07.856Z,829.00
2023-03-06T14:09:08.632Z,850.00
2023-03-06T14:10:08.633Z,859.00
2023-03-06T14:11:08.599Z,860.00
2023-03-06T14:12:08.277Z,862.00
2023-03-06T14:13:08.235Z,864.00
2023-03-06T14:14:07.888Z,867.00
2023-03-06T14:15:08.221Z,867.00
2023-03-06T14:16:08.151Z,864.00
2023-03-06T14:17:07.789Z,861.00
2023-03-06T14:18:07.775Z,864.00
2023-03-06T14:19:07.971Z,863.00
2023-03-06T14:20:07.845Z,861.00
2023-03-06T14:21:07.737Z,868.00
2023-03-06T14:22:07.724Z,877.00
2023-03-06T14:23:07.718Z,876.00
2023-03-06T14:24:07.867Z,870.00
2023-03-06T14:25:07.734Z,870.00
2023-03-06T14:26:07.685Z,867.00
2023-03-06T14:27:07.696Z,860.00
2023-03-06T14:28:14.108Z,857.00
2023-03-06T14:29:07.716Z,857.00
2023-03-06T14:30:07.840Z,855.00
2023-03-06T14:31:07.664Z,856.00
2023-03-06T14:32:07.669Z,861.00
2023-03-06T14:33:07.629Z,859.00
2023-03-06T14:34:07.633Z,857.00
2023-03-06T14:35:07.858Z,845.00
2023-03-06T14:36:07.608Z,791.00
2023-03-06T14:37:07.845Z,773.00
2023-03-06T14:38:07.584Z,760.00
2023-03-06T14:39:07.577Z,750.00
2023-03-06T14:40:07.848Z,731.00
2023-03-06T14:41:07.598Z,719.00
2023-03-06T14:42:07.559Z,709.00
2023-03-06T14:43:07.542Z,695.00
2023-03-06T14:44:07.533Z,680.00
2023-03-06T14:45:07.856Z,673.00
2023-03-06T14:46:07.545Z,666.00
2023-03-06T14:47:07.508Z,660.00
2023-03-06T14:48:07.499Z,653.00
2023-03-06T14:49:07.499Z,646.00
2023-03-06T14:50:07.496Z,645.00
2023-03-06T14:51:07.869Z,647.00
2023-03-06T14:52:07.486Z,646.00
2023-03-06T14:53:07.860Z,725.00
2023-03-06T14:54:07.458Z,726.00
2023-03-06T14:55:07.442Z,714.00
2023-03-06T14:56:07.440Z,712.00
2023-03-06T14:57:07.453Z,710.00
2023-03-06T14:58:07.422Z,707.00
2023-03-06T14:59:07.408Z,702.00
2023-03-06T15:00:07.396Z,699.00
2023-03-06T15:01:07.386Z,700.00
2023-03-06T15:02:07.396Z,704.00
2023-03-06T15:03:07.531Z,699.00
2023-03-06T15:04:07.373Z,686.00
2023-03-06T15:05:07.352Z,689.00
2023-03-06T15:06:07.378Z,692.00
2023-03-06T15:07:07.367Z,693.00
2023-03-06T15:08:07.340Z,695.00
2023-03-06T15:09:08.149Z,702.00
2023-03-06T15:10:07.317Z,700.00
2023-03-06T15:11:07.343Z,700.00
2023-03-06T15:12:07.318Z,698.00
2023-03-06T15:13:07.339Z,706.00
2023-03-06T15:14:07.303Z,706.00
2023-03-06T15:15:07.289Z,710.00
2023-03-06T15:16:07.341Z,723.00
2023-03-06T15:17:07.361Z,724.00
2023-03-06T15:18:07.245Z,743.00
2023-03-06T15:19:07.363Z,738.00
2023-03-06T15:20:07.221Z,707.00
2023-03-06T15:21:07.214Z,691.00
2023-03-06T15:22:07.204Z,699.00
2023-03-06T15:23:07.194Z,702.00
2023-03-06T15:24:07.371Z,703.00
2023-03-06T15:25:07.362Z,708.00
2023-03-06T15:26:07.172Z,709.00
2023-03-06T15:27:07.160Z,717.00
2023-03-06T15:28:07.156Z,710.00
2023-03-06T15:29:10.023Z,705.00
2023-03-06T15:30:07.137Z,699.00
2023-03-06T15:31:07.129Z,686.00
2023-03-06T15:32:07.147Z,676.00
2023-03-06T15:33:07.110Z,661.00
2023-03-06T15:34:07.422Z,654.00
2023-03-06T15:35:07.093Z,673.00
2023-03-06T15:36:07.099Z,684.00
2023-03-06T15:37:07.080Z,686.00
2023-03-06T15:38:07.064Z,683.00
2023-03-06T15:39:07.390Z,679.00
2023-03-06T15:40:07.396Z,672.00
2023-03-06T15:41:07.047Z,669.00
2023-03-06T15:42:07.036Z,666.00
2023-03-06T15:43:07.030Z,652.00
2023-03-06T15:44:07.377Z,643.00
2023-03-06T15:45:07.042Z,639.00
2023-03-06T15:46:07.134Z,635.00
2023-03-06T15:47:09.170Z,629.00
2023-03-06T15:48:07.291Z,628.00
2023-03-06T15:49:07.011Z,623.00
2023-03-06T15:50:07.408Z,612.00
2023-03-06T15:51:07.097Z,603.00
2023-03-06T15:52:06.954Z,601.00
2023-03-06T15:53:06.944Z,594.00
2023-03-06T15:54:12.352Z,588.00
2023-03-06T15:55:06.931Z,577.00
2023-03-06T15:56:06.917Z,571.00
2023-03-06T15:57:06.930Z,569.00
2023-03-06T15:58:06.899Z,565.00
2023-03-06T15:59:06.897Z,561.00
2023-03-06T16:00:10.832Z,556.00
2023-03-06T16:01:06.994Z,556.00
2023-03-06T16:02:06.873Z,551.00
2023-03-06T16:03:06.881Z,549.00
2023-03-06T16:04:06.853Z,546.00
2023-03-06T16:05:06.856Z,544.00
2023-03-06T16:06:06.883Z,539.00
2023-03-06T16:07:06.855Z,537.00
2023-03-06T16:08:06.821Z,536.00
2023-03-06T16:09:06.816Z,532.00
2023-03-06T16:10:06.809Z,527.00
2023-03-06T16:11:06.800Z,524.00
2023-03-06T16:12:06.785Z,525.00
2023-03-06T16:13:06.770Z,526.00
2023-03-06T16:14:06.766Z,526.00
2023-03-06T16:15:06.889Z,528.00
2023-03-06T16:16:06.754Z,531.00
2023-03-06T16:17:06.766Z,531.00
2023-03-06T16:18:06.737Z,530.00
2023-03-06T16:19:09.460Z,529.00
2023-03-06T16:20:06.760Z,528.00
2023-03-06T16:21:06.718Z,527.00
2023-03-06T16:22:06.699Z,526.00
2023-03-06T16:23:06.731Z,526.00
2023-03-06T16:24:06.689Z,526.00
2023-03-06T16:25:06.671Z,526.00
2023-03-06T16:26:06.921Z,529.00
2023-03-06T16:27:06.668Z,528.00
2023-03-06T16:28:06.650Z,527.00
2023-03-06T16:29:06.636Z,525.00
2023-03-06T16:30:06.630Z,525.00
2023-03-06T16:31:06.716Z,527.00
2023-03-06T16:32:06.626Z,529.00
2023-03-06T16:33:06.636Z,527.00
2023-03-06T16:34:06.594Z,528.00
2023-03-06T16:35:06.590Z,529.00
2023-03-06T16:36:06.579Z,527.00
2023-03-06T16:37:06.574Z,528.00
2023-03-06T16:38:06.571Z,525.00
2023-03-06T16:39:06.548Z,527.00
2023-03-06T16:40:06.537Z,527.00
2023-03-06T16:41:06.537Z,527.00
2023-03-06T16:42:06.535Z,525.00
2023-03-06T16:43:06.521Z,524.00
2023-03-06T16:44:06.508Z,526.00
2023-03-06T16:45:06.508Z,526.00
2023-03-06T16:46:06.593Z,526.00
2023-03-06T16:47:06.481Z,527.00
2023-03-06T16:48:06.477Z,525.00
2023-03-06T16:49:06.497Z,524.00
2023-03-06T16:50:06.458Z,523.00
2023-03-06T16:51:06.455Z,524.00
2023-03-06T16:52:06.445Z,521.00
2023-03-06T16:53:06.465Z,523.00
2023-03-06T16:54:06.429Z,522.00
2023-03-06T16:55:06.417Z,521.00
2023-03-06T16:56:06.409Z,524.00
2023-03-06T16:57:06.402Z,526.00
2023-03-06T16:58:06.400Z,525.00
2023-03-06T16:59:06.392Z,525.00
2023-03-06T17:00:06.392Z,524.00
2023-03-06T17:01:06.409Z,525.00
2023-03-06T17:02:06.365Z,525.00
2023-03-06T17:03:06.353Z,524.00
2023-03-06T17:04:06.355Z,523.00
2023-03-06T17:05:06.368Z,520.00
2023-03-06T17:06:06.330Z,520.00
2023-03-06T17:07:06.321Z,520.00
2023-03-06T17:08:06.311Z,521.00
2023-03-06T17:09:06.312Z,520.00
2023-03-06T17:10:06.304Z,520.00
2023-03-06T17:11:06.284Z,520.00
2023-03-06T17:12:06.285Z,518.00
2023-03-06T17:13:06.269Z,519.00
2023-03-06T17:14:06.302Z,520.00
2023-03-06T17:15:06.255Z,522.00
2023-03-06T17:16:06.254Z,522.00
2023-03-06T17:17:06.241Z,520.00
2023-03-06T17:18:06.239Z,518.00
2023-03-06T17:19:06.222Z,520.00
2023-03-06T17:20:06.215Z,520.00
2023-03-06T17:21:06.232Z,520.00
2023-03-06T17:22:06.193Z,523.00
2023-03-06T17:23:06.199Z,524.00
2023-03-06T17:24:06.177Z,526.00
2023-03-06T17:25:06.169Z,524.00
2023-03-06T17:26:06.162Z,524.00
2023-03-06T17:27:06.160Z,526.00
2023-03-06T17:28:06.146Z,524.00
2023-03-06T17:29:07.209Z,521.00
2023-03-06T17:30:06.151Z,520.00
2023-03-06T17:31:06.134Z,517.00
2023-03-06T17:32:06.162Z,515.00
2023-03-06T17:33:06.113Z,515.00
2023-03-06T17:34:06.102Z,513.00
2023-03-06T17:35:06.106Z,514.00
2023-03-06T17:36:06.092Z,514.00
2023-03-06T17:37:06.142Z,514.00
2023-03-06T17:38:06.063Z,513.00
2023-03-06T17:39:06.049Z,512.00
2023-03-06T17:40:06.045Z,510.00
2023-03-06T17:41:06.043Z,510.00
2023-03-06T17:42:06.027Z,510.00
2023-03-06T17:43:06.014Z,510.00
2023-03-06T17:44:06.007Z,511.00
2023-03-06T17:45:06.001Z,514.00
2023-03-06T17:46:06.143Z,515.00
2023-03-06T17:47:05.981Z,514.00
2023-03-06T17:48:05.977Z,514.00
2023-03-06T17:49:05.968Z,513.00
2023-03-06T17:50:05.977Z,511.00
2023-03-06T18:33:05.589Z,506.00
2023-03-06T18:34:05.591Z,507.00
2023-03-06T18:35:05.577Z,511.00
2023-03-06T18:36:05.562Z,511.00
2023-03-06T18:37:05.591Z,512.00
2023-03-06T18:38:05.563Z,516.00
2023-03-06T18:39:05.541Z,515.00
2023-03-06T18:40:05.541Z,515.00
2023-03-06T18:41:05.547Z,513.00
2023-03-06T18:42:05.514Z,514.00
2023-03-06T18:43:05.504Z,512.00
2023-03-06T18:44:05.507Z,513.00
2023-03-06T18:45:05.489Z,512.00
2023-03-06T18:46:05.568Z,513.00
2023-03-06T18:47:05.472Z,512.00
2023-03-06T18:48:05.459Z,513.00
2023-03-06T18:49:05.475Z,515.00
2023-03-06T18:50:05.442Z,517.00
2023-03-06T18:51:05.437Z,519.00
2023-03-06T18:52:05.430Z,519.00
2023-03-06T18:53:05.425Z,519.00
2023-03-06T18:54:05.415Z,519.00
2023-03-06T18:55:05.406Z,518.00
2023-03-06T18:56:05.422Z,516.00
2023-03-06T18:57:05.425Z,511.00
2023-03-06T18:58:05.402Z,512.00
2023-03-06T18:59:05.376Z,510.00
2023-03-06T19:00:05.388Z,512.00
2023-03-06T19:01:05.401Z,511.00
2023-03-06T19:02:05.347Z,509.00
2023-03-06T19:03:05.331Z,511.00
2023-03-06T19:04:05.398Z,515.00
2023-03-06T19:05:05.325Z,516.00
2023-03-06T19:06:05.315Z,515.00
2023-03-06T19:07:05.308Z,514.00
2023-03-06T19:08:05.304Z,514.00
2023-03-06T19:09:05.307Z,512.00
2023-03-06T19:10:05.275Z,512.00
2023-03-06T19:11:05.282Z,511.00
2023-03-06T19:12:05.280Z,508.00
2023-03-06T19:13:05.289Z,508.00
2023-03-06T19:14:05.255Z,508.00
2023-03-06T19:15:05.247Z,508.00
2023-03-06T19:16:05.534Z,508.00
2023-03-06T19:17:05.218Z,508.00
2023-03-06T19:18:05.215Z,507.00
2023-03-06T19:19:05.202Z,509.00
2023-03-06T19:20:05.208Z,508.00
2023-03-06T19:21:05.187Z,507.00
2023-03-06T19:22:05.189Z,506.00
2023-03-06T19:23:05.179Z,504.00
2023-03-06T19:24:05.159Z,505.00
2023-03-06T19:25:05.157Z,507.00
2023-03-06T19:26:05.142Z,506.00
2023-03-06T19:27:05.140Z,506.00
2023-03-06T19:28:05.128Z,507.00
2023-03-06T19:29:05.157Z,508.00
2023-03-06T19:30:05.115Z,507.00
2023-03-06T19:31:05.104Z,507.00
2023-03-06T19:32:05.242Z,506.00
2023-03-06T19:33:05.088Z,505.00
2023-03-06T19:34:05.086Z,504.00
2023-03-06T19:35:05.116Z,506.00
2023-03-06T19:36:05.106Z,507.00
2023-03-06T19:37:05.053Z,507.00
2023-03-06T19:38:05.041Z,507.00
2023-03-06T19:39:05.059Z,506.00
2023-03-06T19:40:05.026Z,505.00
2023-03-06T19:41:05.038Z,506.00
2023-03-06T19:42:05.026Z,507.00
2023-03-06T19:43:05.007Z,507.00
2023-03-06T19:44:05.052Z,506.00
2023-03-06T19:45:05.009Z,506.00
2023-03-06T19:46:05.027Z,506.00
2023-03-06T19:47:04.983Z,506.00
2023-03-06T19:48:04.963Z,506.00
2023-03-06T19:49:04.951Z,505.00
2023-03-06T19:50:04.967Z,504.00
2023-03-06T19:51:04.931Z,503.00
2023-03-06T19:52:04.928Z,500.00
2023-03-06T19:53:04.911Z,501.00
2023-03-06T19:54:04.905Z,502.00
2023-03-06T19:55:04.949Z,501.00
2023-03-06T19:56:04.890Z,499.00
2023-03-06T19:57:04.888Z,500.00
2023-03-06T19:58:04.873Z,502.00
2023-03-06T19:59:04.868Z,503.00
2023-03-06T20:00:04.856Z,503.00
2023-03-06T20:01:04.928Z,505.00
2023-03-06T20:02:04.834Z,505.00
2023-03-06T20:03:04.826Z,506.00
2023-03-06T20:04:04.829Z,507.00
2023-03-06T20:05:04.810Z,504.00
2023-03-06T20:06:04.810Z,504.00
2023-03-06T20:07:04.822Z,504.00
2023-03-06T20:08:04.790Z,502.00
2023-03-06T20:09:04.777Z,504.00
2023-03-06T20:10:04.773Z,507.00
2023-03-06T20:11:04.762Z,507.00
2023-03-06T20:12:07.754Z,507.00
2023-03-06T20:13:04.742Z,507.00
2023-03-06T20:14:04.747Z,508.00
2023-03-06T20:15:04.725Z,507.00
2023-03-06T20:16:04.810Z,508.00
2023-03-06T20:17:04.731Z,507.00
2023-03-06T20:18:04.695Z,508.00
2023-03-06T20:19:04.688Z,511.00
2023-03-06T20:20:04.693Z,509.00
2023-03-06T20:21:04.669Z,510.00
2023-03-06T20:22:04.661Z,509.00
2023-03-06T20:23:04.643Z,508.00
2023-03-06T20:24:04.641Z,505.00
2023-03-06T20:25:04.631Z,505.00
2023-03-06T20:26:04.624Z,505.00
2023-03-06T20:27:04.620Z,503.00
2023-03-06T20:28:04.615Z,504.00
2023-03-06T20:29:04.597Z,503.00
2023-03-06T20:30:07.006Z,501.00
2023-03-06T20:31:04.599Z,501.00
2023-03-06T20:32:04.641Z,501.00
2023-03-06T20:33:04.589Z,500.00
2023-03-06T20:34:04.553Z,502.00
2023-03-06T20:35:04.543Z,501.00
2023-03-06T20:36:04.595Z,502.00
2023-03-06T20:37:04.528Z,499.00
2023-03-06T20:38:04.514Z,500.00
2023-03-06T20:39:04.507Z,501.00
2023-03-06T20:40:04.532Z,501.00
2023-03-06T20:41:04.493Z,500.00
2023-03-06T20:42:04.495Z,498.00
2023-03-06T20:43:04.471Z,498.00
2023-03-06T20:44:04.496Z,500.00
2023-03-06T20:45:04.459Z,500.00
2023-03-06T20:46:04.490Z,504.00
2023-03-06T20:47:04.447Z,507.00
2023-03-06T20:48:04.445Z,506.00
2023-03-06T20:49:04.456Z,509.00
2023-03-06T20:50:04.423Z,509.00
2023-03-06T20:51:04.418Z,510.00
2023-03-06T20:52:04.399Z,508.00
2023-03-06T20:53:04.397Z,509.00
2023-03-06T20:54:04.392Z,509.00
2023-03-06T20:55:04.378Z,508.00
2023-03-06T20:56:04.374Z,508.00
2023-03-06T20:57:04.357Z,507.00
2023-03-06T20:58:04.351Z,509.00
2023-03-06T20:59:04.337Z,510.00
2023-03-06T21:00:04.335Z,511.00
2023-03-06T21:01:04.325Z,511.00
2023-03-06T21:02:04.353Z,511.00
2023-03-06T21:03:04.308Z,508.00
2023-03-06T21:04:04.309Z,507.00
2023-03-06T21:05:04.549Z,505.00
2023-03-06T21:06:04.280Z,502.00
2023-03-06T21:07:04.273Z,501.00
2023-03-06T21:08:04.275Z,502.00
2023-03-06T21:09:04.266Z,503.00
2023-03-06T21:10:04.254Z,505.00
2023-03-06T21:11:04.243Z,503.00
2023-03-06T21:12:04.235Z,505.00
2023-03-06T21:13:04.230Z,507.00
2023-03-06T21:14:04.244Z,505.00
2023-03-06T21:15:04.228Z,506.00
2023-03-06T21:16:04.228Z,508.00
2023-03-06T21:17:04.239Z,507.00
2023-03-06T21:18:04.224Z,507.00
2023-03-06T21:19:04.180Z,507.00
2023-03-06T21:20:04.222Z,504.00
2023-03-06T21:21:04.231Z,500.00
2023-03-06T21:22:04.154Z,500.00
2023-03-06T21:23:04.201Z,501.00
2023-03-06T21:24:04.135Z,501.00
2023-03-06T21:25:04.134Z,504.00
2023-03-06T21:26:04.121Z,503.00
2023-03-06T21:27:04.114Z,503.00
2023-03-06T21:28:04.104Z,500.00
2023-03-06T21:29:04.093Z,501.00
2023-03-06T21:30:04.091Z,499.00
2023-03-06T21:31:04.173Z,499.00
2023-03-06T21:32:04.194Z,496.00
2023-03-06T22:23:03.644Z,499.00
2023-03-06T22:24:03.634Z,499.00
2023-03-06T22:25:03.659Z,497.00
2023-03-06T22:26:03.630Z,498.00
2023-03-06T22:27:03.621Z,497.00
2023-03-06T22:28:03.605Z,498.00
2023-03-06T22:29:03.602Z,497.00
2023-03-06T22:30:03.587Z,500.00
2023-03-06T22:31:03.586Z,501.00
2023-03-06T22:32:03.701Z,500.00
2023-03-06T22:33:03.562Z,501.00
2023-03-06T22:34:04.515Z,498.00
2023-03-06T22:35:03.548Z,497.00
2023-03-06T22:36:03.558Z,494.00
2023-03-06T22:37:03.528Z,493.00
2023-03-06T22:38:03.512Z,492.00
2023-03-06T22:39:03.525Z,492.00
2023-03-06T22:40:03.502Z,491.00
2023-03-06T22:41:03.517Z,494.00
2023-03-06T22:42:03.528Z,498.00
2023-03-06T22:43:03.476Z,498.00
2023-03-06T22:44:03.471Z,497.00
2023-03-06T22:45:03.452Z,496.00
2023-03-06T22:46:03.485Z,496.00
2023-03-06T22:47:03.438Z,490.00
2023-03-06T22:48:10.909Z,492.00
2023-03-06T22:49:03.428Z,492.00
2023-03-06T22:50:03.419Z,493.00
2023-03-06T22:51:03.426Z,492.00
2023-03-06T22:52:03.401Z,493.00
2023-03-06T22:53:03.432Z,491.00
2023-03-06T22:54:03.382Z,490.00
2023-03-06T22:55:03.369Z,492.00
2023-03-06T22:56:03.372Z,493.00
2023-03-06T22:57:03.378Z,495.00
2023-03-06T22:58:03.353Z,497.00
2023-03-06T22:59:03.341Z,495.00
2023-03-06T23:00:03.331Z,495.00
2023-03-06T23:01:03.353Z,496.00
2023-03-06T23:02:03.317Z,496.00
2023-03-06T23:03:03.314Z,497.00
2023-03-06T23:04:03.418Z,497.00
2023-03-06T23:05:03.292Z,496.00
2023-03-06T23:06:03.281Z,497.00
2023-03-06T23:07:03.274Z,496.00
2023-03-06T23:08:03.270Z,497.00
2023-03-06T23:09:03.270Z,496.00
2023-03-06T23:10:03.251Z,494.00